createdAt,value
2019-03-15T00:01:39.179Z,6.00
2019-03-15T00:04:06.319Z,6.10
2019-03-15T00:06:33.469Z,6.10
2019-03-15T00:09:00.619Z,6.10
2019-03-15T00:11:27.699Z,6.10
2019-03-15T00:13:54.779Z,6.10
2019-03-15T00:16:21.902Z,6.10
2019-03-15T00:18:48.999Z,6.10
2019-03-15T00:21:16.039Z,6.20
2019-03-15T00:23:43.272Z,6.20
2019-03-15T00:26:10.359Z,6.20
2019-03-15T00:28:37.481Z,6.20
2019-03-15T00:31:04.559Z,6.20
2019-03-15T00:33:31.659Z,6.20
2019-03-15T00:35:58.761Z,6.10
2019-03-15T00:38:25.962Z,6.10
2019-03-15T00:40:53.143Z,6.10
2019-03-15T00:43:20.319Z,6.10
2019-03-15T00:45:47.559Z,6.10
2019-03-15T00:48:14.659Z,6.10
2019-03-15T00:50:41.779Z,6.10
2019-03-15T00:53:08.880Z,6.10
2019-03-15T00:55:35.959Z,6.10
2019-03-15T00:58:03.042Z,6.10
2019-03-15T01:00:30.180Z,6.10
2019-03-15T01:02:57.243Z,6.10
2019-03-15T01:05:24.443Z,6.20
2019-03-15T01:07:51.504Z,6.20
2019-03-15T01:10:18.640Z,6.10
2019-03-15T01:12:45.789Z,6.10
2019-03-15T01:15:13.060Z,6.10
2019-03-15T01:17:40.159Z,6.20
2019-03-15T01:20:08.439Z,6.20
2019-03-15T01:22:35.539Z,6.20
2019-03-15T01:25:04.892Z,6.10
2019-03-15T01:27:32.338Z,6.10
2019-03-15T01:29:59.399Z,6.10
2019-03-15T01:32:26.540Z,6.20
2019-03-15T01:34:53.645Z,6.20
2019-03-15T01:37:20.800Z,6.20
2019-03-15T01:39:47.861Z,6.20
2019-03-15T01:42:14.941Z,6.10
2019-03-15T01:44:42.071Z,6.10
2019-03-15T01:47:09.148Z,6.10
2019-03-15T01:49:36.180Z,6.10
2019-03-15T01:52:03.501Z,6.10
2019-03-15T01:54:30.599Z,6.10
2019-03-15T01:56:57.706Z,6.10
2019-03-15T01:59:25.900Z,6.10
2019-03-15T02:01:53.021Z,6.30
2019-03-15T02:04:20.210Z,6.20
2019-03-15T02:06:47.379Z,6.20
2019-03-15T02:09:14.459Z,6.30
2019-03-15T02:11:41.573Z,6.30
2019-03-15T02:14:08.700Z,6.40
2019-03-15T02:16:35.759Z,6.40
2019-03-15T02:19:02.844Z,6.40
2019-03-15T02:21:29.959Z,6.40
2019-03-15T02:23:56.999Z,6.40
2019-03-15T02:26:24.099Z,6.40
2019-03-15T02:28:51.259Z,6.30
2019-03-15T02:31:18.391Z,6.30
2019-03-15T02:33:45.581Z,6.30
2019-03-15T02:36:13.936Z,6.30
2019-03-15T02:38:41.321Z,6.30
2019-03-15T02:41:08.426Z,6.30
2019-03-15T02:43:35.478Z,6.30
2019-03-15T02:46:02.551Z,6.30
2019-03-15T02:48:29.700Z,6.20
2019-03-15T02:50:56.779Z,6.20
2019-03-15T02:53:23.868Z,6.20
2019-03-15T02:55:51.261Z,6.20
2019-03-15T02:58:18.299Z,6.30
2019-03-15T03:00:45.406Z,6.30
2019-03-15T03:03:12.540Z,6.30
2019-03-15T03:05:39.663Z,6.30
2019-03-15T03:08:06.740Z,6.20
2019-03-15T03:10:33.867Z,6.10
2019-03-15T03:13:00.941Z,6.10
2019-03-15T03:15:28.019Z,6.20
2019-03-15T03:17:55.060Z,6.10
2019-03-15T03:20:22.200Z,6.10
2019-03-15T03:22:49.265Z,6.10
2019-03-15T03:25:17.266Z,6.10
2019-03-15T03:27:44.764Z,6.10
2019-03-15T03:30:13.274Z,6.00
2019-03-15T03:32:44.184Z,6.00
2019-03-15T03:35:10.853Z,6.00
2019-03-15T03:37:38.202Z,5.90
2019-03-15T03:40:07.126Z,5.90
2019-03-15T03:42:34.150Z,5.90
2019-03-15T03:45:05.140Z,5.90
2019-03-15T03:47:52.040Z,5.90
2019-03-15T03:50:19.181Z,5.80
2019-03-15T03:52:46.744Z,5.90
2019-03-15T03:55:13.879Z,6.00
2019-03-15T03:57:40.959Z,6.10
2019-03-15T04:00:13.981Z,6.10
2019-03-15T04:02:41.101Z,6.10
2019-03-15T04:05:08.219Z,6.10
2019-03-15T04:07:35.579Z,6.20
2019-03-15T04:10:07.239Z,6.10
2019-03-15T04:12:34.319Z,6.00
2019-03-15T04:15:01.425Z,6.00
2019-03-15T04:17:28.539Z,5.90
2019-03-15T04:19:55.624Z,5.90
2019-03-15T04:22:22.680Z,5.90
2019-03-15T04:24:49.882Z,5.80
2019-03-15T04:27:17.041Z,5.70
2019-03-15T04:29:54.001Z,5.70
2019-03-15T04:32:21.242Z,5.60
2019-03-15T04:34:48.442Z,5.60
2019-03-15T04:37:15.622Z,5.70
2019-03-15T04:39:42.823Z,5.80
2019-03-15T04:42:10.158Z,5.80
2019-03-15T04:44:37.693Z,5.80
2019-03-15T04:47:04.883Z,5.90
2019-03-15T04:49:32.082Z,5.90
2019-03-15T04:51:59.302Z,6.00
2019-03-15T04:54:26.443Z,6.00
2019-03-15T04:56:53.704Z,6.00
2019-03-15T04:59:23.920Z,6.00
2019-03-15T05:01:50.023Z,6.00
2019-03-15T05:04:17.183Z,6.00
2019-03-15T05:06:44.363Z,6.00
2019-03-15T05:09:11.603Z,6.00
2019-03-15T05:11:39.042Z,6.00
2019-03-15T05:14:06.143Z,6.00
2019-03-15T05:16:33.305Z,6.10
2019-03-15T05:19:00.417Z,6.10
2019-03-15T05:21:27.929Z,6.10
2019-03-15T05:23:55.101Z,6.10
2019-03-15T05:26:22.283Z,6.10
2019-03-15T05:28:49.483Z,6.10
2019-03-15T05:31:16.773Z,6.10
2019-03-15T05:33:44.365Z,6.10
2019-03-15T05:36:11.586Z,6.10
2019-03-15T05:38:38.743Z,6.00
2019-03-15T05:41:05.824Z,6.00
2019-03-15T05:43:33.023Z,6.00
2019-03-15T05:46:00.184Z,6.00
2019-03-15T05:48:27.391Z,5.90
2019-03-15T05:50:54.582Z,5.90
2019-03-15T05:53:21.762Z,5.90
2019-03-15T05:55:49.202Z,6.00
2019-03-15T05:58:16.785Z,6.00
2019-03-15T06:00:43.926Z,6.00
2019-03-15T06:03:12.668Z,6.10
2019-03-15T06:05:40.146Z,6.10
2019-03-15T06:08:07.346Z,6.10
2019-03-15T06:10:34.527Z,6.10
2019-03-15T06:13:01.747Z,6.10
2019-03-15T06:15:29.027Z,6.10
2019-03-15T06:17:56.187Z,6.10
2019-03-15T06:20:23.347Z,6.10
2019-03-15T06:22:50.488Z,6.20
2019-03-15T06:25:17.997Z,6.20
2019-03-15T06:27:45.188Z,6.20
2019-03-15T06:30:14.259Z,6.30
2019-03-15T06:32:41.459Z,6.30
2019-03-15T06:35:08.839Z,6.50
2019-03-15T06:37:35.985Z,6.70
2019-03-15T06:40:05.599Z,6.80
2019-03-15T06:42:32.782Z,6.80
2019-03-15T06:45:00.480Z,6.90
2019-03-15T06:47:27.740Z,6.90
2019-03-15T06:49:54.885Z,6.90
2019-03-15T06:52:22.062Z,6.80
2019-03-15T06:54:49.201Z,6.70
2019-03-15T06:57:16.320Z,6.70
2019-03-15T06:59:43.540Z,6.70
2019-03-15T07:02:10.699Z,6.80
2019-03-15T07:04:37.820Z,6.80
2019-03-15T07:07:04.979Z,6.90
2019-03-15T07:09:32.219Z,6.90
2019-03-15T07:12:08.881Z,7.10
2019-03-15T07:14:28.517Z,7.20
2019-03-15T07:16:55.718Z,7.40
2019-03-15T07:19:27.545Z,7.40
2019-03-15T07:21:52.338Z,7.60
2019-03-15T07:24:25.256Z,7.50
2019-03-15T07:26:48.698Z,7.50
2019-03-15T07:29:18.847Z,7.50
2019-03-15T07:31:44.978Z,7.60
2019-03-15T07:34:13.902Z,7.80
2019-03-15T07:36:41.198Z,7.80
2019-03-15T07:39:08.358Z,7.90
2019-03-15T07:41:35.538Z,8.10
2019-03-15T07:44:02.691Z,8.10
2019-03-15T07:46:30.575Z,8.10
2019-03-15T07:48:57.775Z,8.10
2019-03-15T07:51:24.893Z,8.10
2019-03-15T07:53:52.052Z,8.00
2019-03-15T07:56:19.712Z,7.90
2019-03-15T07:58:46.852Z,7.90
2019-03-15T08:01:14.053Z,7.90
2019-03-15T08:03:41.203Z,7.90
2019-03-15T08:06:08.371Z,7.90
2019-03-15T08:08:35.654Z,7.90
2019-03-15T08:11:02.972Z,7.80
2019-03-15T08:13:30.212Z,7.90
2019-03-15T08:15:57.355Z,7.80
2019-03-15T08:18:25.452Z,7.80
2019-03-15T08:20:52.634Z,7.80
2019-03-15T08:23:19.793Z,7.90
2019-03-15T08:25:50.268Z,8.00
2019-03-15T08:28:16.492Z,8.00
2019-03-15T08:30:43.712Z,8.10
2019-03-15T08:33:11.328Z,8.30
2019-03-15T08:35:38.872Z,8.30
2019-03-15T08:38:06.014Z,8.40
2019-03-15T08:40:33.255Z,8.40
2019-03-15T08:43:00.472Z,8.40
2019-03-15T08:45:27.539Z,8.50
2019-03-15T08:47:55.094Z,8.60
2019-03-15T08:50:24.586Z,8.60
2019-03-15T08:52:53.945Z,8.70
2019-03-15T08:55:20.517Z,8.80
2019-03-15T08:57:47.712Z,8.80
2019-03-15T09:00:17.476Z,8.90
2019-03-15T09:02:44.612Z,9.10
2019-03-15T09:05:14.612Z,9.10
2019-03-15T09:07:41.772Z,9.20
2019-03-15T09:10:23.025Z,9.30
2019-03-15T09:12:47.174Z,9.20
2019-03-15T09:15:14.452Z,9.10
2019-03-15T09:17:41.656Z,9.00
2019-03-15T09:20:15.251Z,9.00
2019-03-15T09:22:42.432Z,9.20
2019-03-15T09:25:19.247Z,9.20
2019-03-15T09:27:40.920Z,9.30
2019-03-15T09:30:23.331Z,9.40
2019-03-15T09:32:42.092Z,9.40
2019-03-15T09:35:09.634Z,9.30
2019-03-15T09:37:36.715Z,9.10
2019-03-15T09:40:14.432Z,9.00
2019-03-15T09:42:41.592Z,9.00
2019-03-15T09:45:13.393Z,8.90
2019-03-15T09:47:40.592Z,8.70
2019-03-15T09:50:22.798Z,8.60
2019-03-15T09:52:41.503Z,8.50
2019-03-15T09:55:11.892Z,8.40
2019-03-15T09:57:39.053Z,8.30
2019-03-15T10:00:18.232Z,8.30
2019-03-15T10:02:45.335Z,8.30
2019-03-15T10:05:12.554Z,8.20
2019-03-15T10:07:43.072Z,8.10
2019-03-15T10:10:18.953Z,8.20
2019-03-15T10:12:46.076Z,8.10
2019-03-15T10:15:14.673Z,8.10
2019-03-15T10:17:42.393Z,8.00
2019-03-15T10:20:14.012Z,8.00
2019-03-15T10:22:41.174Z,7.80
2019-03-15T10:25:14.139Z,7.70
2019-03-15T10:27:41.295Z,7.60
2019-03-15T10:30:17.140Z,7.50
2019-03-15T10:32:44.395Z,7.40
2019-03-15T10:35:12.813Z,7.30
2019-03-15T10:37:39.961Z,7.20
2019-03-15T10:40:22.403Z,7.20
2019-03-15T10:42:49.553Z,7.20
2019-03-15T10:45:16.712Z,7.20
2019-03-15T10:47:44.204Z,7.20
2019-03-15T10:50:15.532Z,7.20
2019-03-15T10:52:42.753Z,7.20
2019-03-15T10:55:10.463Z,7.20
2019-03-15T10:57:37.659Z,7.20
2019-03-15T11:00:16.533Z,7.10
2019-03-15T11:02:43.697Z,7.10
2019-03-15T11:05:11.079Z,7.10
2019-03-15T11:07:38.254Z,7.10
2019-03-15T11:10:09.678Z,7.10
2019-03-15T11:12:36.893Z,7.10
2019-03-15T11:15:26.832Z,7.20
2019-03-15T11:17:53.953Z,7.20
2019-03-15T11:20:21.573Z,7.20
2019-03-15T11:22:48.756Z,7.20
2019-03-15T11:25:15.872Z,7.20
2019-03-15T11:27:43.303Z,7.30
2019-03-15T11:30:12.378Z,7.30
2019-03-15T11:32:39.936Z,7.30
2019-03-15T11:35:10.897Z,7.30
2019-03-15T11:37:38.495Z,7.40
2019-03-15T11:40:14.125Z,7.40
2019-03-15T11:42:40.937Z,7.40
2019-03-15T11:45:10.343Z,7.40
2019-03-15T11:47:56.319Z,7.50
2019-03-15T11:50:11.106Z,7.50
2019-03-15T11:52:38.269Z,7.60
2019-03-15T11:55:07.855Z,7.60
2019-03-15T11:57:35.117Z,7.60
2019-03-15T12:00:06.120Z,7.50
2019-03-15T12:02:33.716Z,7.50
2019-03-15T12:05:01.058Z,7.40
2019-03-15T12:07:28.216Z,7.40
2019-03-15T12:09:55.377Z,7.40
2019-03-15T12:12:22.619Z,7.30
2019-03-15T12:14:49.813Z,7.30
2019-03-15T12:17:17.653Z,7.30
2019-03-15T12:19:44.896Z,7.30
2019-03-15T12:22:12.096Z,7.30
2019-03-15T12:24:39.215Z,7.30
2019-03-15T12:27:06.428Z,7.40
2019-03-15T12:29:33.626Z,7.40
2019-03-15T12:32:00.726Z,7.30
2019-03-15T12:34:27.969Z,7.40
2019-03-15T12:36:55.105Z,7.30
2019-03-15T12:39:22.310Z,7.40
2019-03-15T12:41:49.466Z,7.40
2019-03-15T12:44:16.729Z,7.40
2019-03-15T12:46:44.107Z,7.40
2019-03-15T12:49:11.265Z,7.30
2019-03-15T12:51:38.426Z,7.30
2019-03-15T12:54:05.738Z,7.30
2019-03-15T12:56:32.979Z,7.30
2019-03-15T12:59:00.164Z,7.30
2019-03-15T13:01:27.344Z,7.40
2019-03-15T13:03:54.465Z,7.50
2019-03-15T13:06:21.807Z,7.50
2019-03-15T13:08:48.987Z,7.50
2019-03-15T13:11:16.184Z,7.40
2019-03-15T13:13:43.365Z,7.40
2019-03-15T13:16:10.546Z,7.30
2019-03-15T13:18:37.823Z,7.20
2019-03-15T13:21:05.275Z,7.20
2019-03-15T13:23:32.885Z,7.10
2019-03-15T13:26:00.080Z,7.00
2019-03-15T13:28:27.329Z,7.00
2019-03-15T13:30:54.578Z,6.90
2019-03-15T13:33:21.802Z,6.80
2019-03-15T13:35:49.481Z,6.80
2019-03-15T13:38:16.771Z,6.70
2019-03-15T13:40:43.851Z,6.70
2019-03-15T13:43:11.247Z,6.70
2019-03-15T13:45:38.773Z,6.70
2019-03-15T13:48:06.068Z,6.80
2019-03-15T13:50:33.312Z,6.80
2019-03-15T13:53:00.530Z,6.90
2019-03-15T13:55:27.694Z,6.90
2019-03-15T13:57:54.808Z,6.90
2019-03-15T14:00:22.172Z,6.90
2019-03-15T14:02:49.393Z,6.90
2019-03-15T14:05:16.613Z,6.90
2019-03-15T14:07:43.894Z,6.90
2019-03-15T14:10:14.294Z,6.90
2019-03-15T14:12:41.477Z,6.90
2019-03-15T14:15:17.335Z,6.90
2019-03-15T14:17:44.491Z,6.90
2019-03-15T14:20:12.970Z,6.90
2019-03-15T14:22:40.345Z,6.90
2019-03-15T14:25:14.998Z,6.90
2019-03-15T14:27:42.125Z,6.80
2019-03-15T14:30:11.946Z,6.80
2019-03-15T14:32:39.141Z,6.80
2019-03-15T14:35:08.979Z,6.80
2019-03-15T14:37:36.379Z,6.80
2019-03-15T14:40:07.083Z,6.80
2019-03-15T14:42:34.399Z,6.80
2019-03-15T14:45:02.323Z,6.80
2019-03-15T14:47:29.437Z,6.80
2019-03-15T14:49:56.621Z,6.80
2019-03-15T14:52:24.215Z,6.80
2019-03-15T14:54:51.349Z,6.80
2019-03-15T14:57:18.462Z,6.80
2019-03-15T15:02:12.540Z,6.90
2019-03-15T15:04:40.101Z,6.90
2019-03-15T15:07:07.324Z,6.90
2019-03-15T15:09:34.671Z,6.90
2019-03-15T15:12:01.923Z,6.90
2019-03-15T15:14:29.242Z,6.90
2019-03-15T15:19:32.153Z,6.90
2019-03-15T15:21:59.332Z,6.90
2019-03-15T15:24:26.836Z,6.90
2019-03-15T15:26:54.081Z,6.90
2019-03-15T15:29:22.209Z,7.00
2019-03-15T15:31:49.678Z,7.00
2019-03-15T15:34:16.896Z,7.00
2019-03-15T15:36:44.365Z,7.00
2019-03-15T15:39:11.570Z,7.10
2019-03-15T15:41:38.740Z,7.10
2019-03-15T15:44:05.931Z,7.10
2019-03-15T15:46:33.224Z,7.20
2019-03-15T15:49:00.378Z,7.10
2019-03-15T15:51:27.578Z,7.10
2019-03-15T15:53:54.698Z,7.00
2019-03-15T15:56:21.866Z,7.10
2019-03-15T15:58:49.031Z,7.00
2019-03-15T16:01:16.238Z,7.00
2019-03-15T16:03:43.442Z,7.00
2019-03-15T16:06:10.639Z,7.00
2019-03-15T16:08:37.780Z,7.10
2019-03-15T16:11:04.956Z,7.00
2019-03-15T16:13:32.125Z,7.00
2019-03-15T16:15:59.305Z,7.00
2019-03-15T16:18:26.956Z,6.90
2019-03-15T16:20:54.326Z,6.90
2019-03-15T16:23:21.504Z,6.90
2019-03-15T16:25:48.679Z,6.90
2019-03-15T16:28:15.911Z,6.90
2019-03-15T16:30:43.035Z,6.90
2019-03-15T16:33:10.231Z,6.90
2019-03-15T16:35:37.372Z,6.90
2019-03-15T16:38:04.668Z,7.00
2019-03-15T16:40:31.880Z,7.00
2019-03-15T16:42:59.042Z,7.00
2019-03-15T16:45:31.120Z,6.90
2019-03-15T16:47:58.419Z,6.90
2019-03-15T16:50:25.679Z,7.00
2019-03-15T16:52:52.951Z,7.00
2019-03-15T16:55:20.135Z,7.00
2019-03-15T16:57:47.288Z,7.00
2019-03-15T17:00:15.458Z,7.00
2019-03-15T17:02:42.770Z,7.00
2019-03-15T17:05:11.631Z,7.00
2019-03-15T17:07:38.833Z,7.00
2019-03-15T17:10:16.136Z,7.00
2019-03-15T17:12:43.440Z,7.10
2019-03-15T17:15:16.479Z,7.10
2019-03-15T17:17:43.702Z,7.20
2019-03-15T17:20:11.496Z,7.20
2019-03-15T17:22:38.859Z,7.40
2019-03-15T17:25:11.148Z,7.60
2019-03-15T17:27:38.444Z,7.90
2019-03-15T17:30:14.141Z,8.00
2019-03-15T17:32:41.293Z,8.20
2019-03-15T17:35:13.236Z,8.30
2019-03-15T17:37:40.513Z,8.40
2019-03-15T17:40:39.537Z,8.50
2019-03-15T17:43:07.891Z,8.60
2019-03-15T17:45:35.031Z,8.70
2019-03-15T17:48:02.376Z,8.70
2019-03-15T17:50:29.681Z,8.80
2019-03-15T17:52:56.886Z,8.80
2019-03-15T17:55:24.120Z,8.80
2019-03-15T17:57:51.357Z,8.80
2019-03-15T18:00:27.206Z,8.90
2019-03-15T18:02:54.422Z,9.00
2019-03-15T18:05:21.585Z,9.10
2019-03-15T18:07:48.738Z,9.10
2019-03-15T18:10:16.006Z,9.10
2019-03-15T18:12:43.269Z,9.20
2019-03-15T18:15:10.479Z,9.20
2019-03-15T18:17:37.572Z,9.30
2019-03-15T18:20:07.238Z,9.30
2019-03-15T18:22:34.384Z,9.30
2019-03-15T18:25:01.582Z,9.40
2019-03-15T18:27:28.818Z,9.30
2019-03-15T18:29:55.995Z,9.40
2019-03-15T18:32:23.207Z,9.50
2019-03-15T18:34:50.314Z,9.50
2019-03-15T18:37:17.467Z,9.50
2019-03-15T18:39:44.707Z,9.60
2019-03-15T18:42:12.495Z,9.60
2019-03-15T18:44:39.987Z,9.60
2019-03-15T18:47:07.149Z,9.60
2019-03-15T18:49:34.269Z,9.60
2019-03-15T18:52:01.456Z,9.70
2019-03-15T18:54:28.715Z,9.70
2019-03-15T18:56:55.895Z,9.80
2019-03-15T18:59:23.027Z,9.80
2019-03-15T19:01:50.231Z,9.80
2019-03-15T19:04:17.416Z,9.80
2019-03-15T19:06:44.688Z,9.90
2019-03-15T19:09:11.905Z,9.90
2019-03-15T19:11:39.381Z,9.90
2019-03-15T19:14:06.560Z,9.90
2019-03-15T19:16:34.246Z,9.90
2019-03-15T19:19:01.721Z,10.00
2019-03-15T19:21:28.866Z,10.00
2019-03-15T19:23:56.034Z,10.00
2019-03-15T19:26:23.242Z,10.10
2019-03-15T19:28:50.389Z,10.10
2019-03-15T19:31:17.701Z,10.10
2019-03-15T19:33:44.861Z,10.10
2019-03-15T19:36:12.160Z,10.20
2019-03-15T19:38:39.351Z,10.20
2019-03-15T19:41:06.524Z,10.20
2019-03-15T19:43:33.780Z,10.20
2019-03-15T19:46:00.967Z,10.20
2019-03-15T19:48:28.108Z,10.20
2019-03-15T19:50:55.237Z,10.20
2019-03-15T19:53:22.437Z,10.20
2019-03-15T19:55:49.545Z,10.30
2019-03-15T19:58:16.707Z,10.30
2019-03-15T20:00:43.917Z,10.30
2019-03-15T20:03:11.177Z,10.40
2019-03-15T20:05:38.317Z,10.40
2019-03-15T20:08:05.557Z,10.40
2019-03-15T20:10:32.697Z,10.50
2019-03-15T20:13:02.436Z,10.50
2019-03-15T20:15:29.020Z,10.50
2019-03-15T20:17:56.158Z,10.50
2019-03-15T20:20:23.322Z,10.60
2019-03-15T20:22:51.024Z,10.50
2019-03-15T20:25:18.162Z,10.50
2019-03-15T20:27:45.416Z,10.50
2019-03-15T20:30:26.607Z,10.60
2019-03-15T20:32:53.341Z,10.60
2019-03-15T20:35:20.505Z,10.70
2019-03-15T20:37:47.880Z,10.60
2019-03-15T20:40:15.486Z,10.60
2019-03-15T20:42:42.620Z,10.60
2019-03-15T20:45:23.004Z,10.60
2019-03-15T20:47:50.388Z,10.60
2019-03-15T20:50:17.585Z,10.60
2019-03-15T20:52:44.851Z,10.50
2019-03-15T20:55:12.045Z,10.50
2019-03-15T20:57:39.188Z,10.50
2019-03-15T21:00:16.569Z,10.50
2019-03-15T21:02:43.826Z,10.50
2019-03-15T21:05:11.166Z,10.50
2019-03-15T21:07:38.426Z,10.50
2019-03-15T21:10:10.005Z,10.60
2019-03-15T21:12:37.225Z,10.60
2019-03-15T21:15:08.987Z,10.60
2019-03-15T21:17:36.166Z,10.60
2019-03-15T21:20:07.805Z,10.60
2019-03-15T21:22:35.112Z,10.70
2019-03-15T21:25:02.329Z,10.60
2019-03-15T21:27:29.425Z,10.60
2019-03-15T21:29:57.145Z,10.70
2019-03-15T21:32:24.348Z,10.60
2019-03-15T21:34:51.505Z,10.70
2019-03-15T21:37:18.746Z,10.60
2019-03-15T21:39:45.943Z,10.60
2019-03-15T21:42:13.198Z,10.50
2019-03-15T21:44:40.407Z,10.50
2019-03-15T21:47:07.546Z,10.50
2019-03-15T21:49:35.438Z,10.60
2019-03-15T21:52:03.185Z,10.60
2019-03-15T21:54:30.334Z,10.50
2019-03-15T21:56:57.494Z,10.60
2019-03-15T21:59:24.731Z,10.60
2019-03-15T22:01:51.845Z,10.70
2019-03-15T22:04:19.115Z,10.80
2019-03-15T22:06:46.447Z,10.90
2019-03-15T22:09:13.609Z,10.80
2019-03-15T22:11:40.747Z,10.80
2019-03-15T22:14:07.987Z,10.80
2019-03-15T22:16:35.125Z,10.90
2019-03-15T22:19:02.290Z,10.90
2019-03-15T22:21:29.570Z,10.90
2019-03-15T22:23:56.740Z,10.90
2019-03-15T22:26:24.127Z,11.00
2019-03-15T22:28:51.365Z,11.00
2019-03-15T22:31:18.564Z,11.00
2019-03-15T22:33:46.125Z,11.10
2019-03-15T22:36:13.360Z,11.10
2019-03-15T22:38:40.498Z,11.20
2019-03-15T22:41:08.036Z,11.20
2019-03-15T22:43:35.255Z,11.20
2019-03-15T22:46:02.635Z,11.30
2019-03-15T22:48:29.777Z,11.30
2019-03-15T22:50:56.975Z,11.40
2019-03-15T22:53:24.155Z,11.40
2019-03-15T22:55:51.539Z,11.40
2019-03-15T22:58:18.724Z,11.50
2019-03-15T23:00:47.916Z,11.50
2019-03-15T23:03:15.076Z,11.60
2019-03-15T23:05:42.255Z,11.60
2019-03-15T23:08:09.395Z,11.60
2019-03-15T23:10:36.535Z,11.50
2019-03-15T23:13:03.816Z,11.50
2019-03-15T23:15:30.916Z,11.50
2019-03-15T23:17:58.058Z,11.50
2019-03-15T23:20:25.358Z,11.60
2019-03-15T23:22:54.912Z,11.60
2019-03-15T23:25:21.614Z,11.70
2019-03-15T23:27:48.816Z,11.70
2019-03-15T23:30:16.496Z,11.70
2019-03-15T23:32:43.896Z,11.70
2019-03-15T23:35:11.438Z,11.80
2019-03-15T23:37:38.662Z,11.70
2019-03-15T23:40:14.696Z,11.70
2019-03-15T23:42:41.836Z,11.70
2019-03-15T23:45:10.183Z,11.70
2019-03-15T23:47:37.576Z,11.80
2019-03-15T23:50:11.816Z,11.80
2019-03-15T23:52:39.236Z,11.80
2019-03-15T23:55:07.575Z,11.80
2019-03-15T23:57:34.736Z,11.90
